sensor_id;sensor_type;location;lat;lon;timestamp;temperature;humidity
62853;DHT22;49205;44.868;38.140;2022-11-15T00:02:42;7.10;93.80
62853;DHT22;49205;44.868;38.140;2022-11-15T00:05:29;7.10;93.60
62853;DHT22;49205;44.868;38.140;2022-11-15T00:08:16;7.10;93.80
62853;DHT22;49205;44.868;38.140;2022-11-15T00:11:04;7.10;94.00
62853;DHT22;49205;44.868;38.140;2022-11-15T00:13:54;7.00;94.00
62853;DHT22;49205;44.868;38.140;2022-11-15T00:16:40;7.10;93.90
62853;DHT22;49205;44.868;38.140;2022-11-15T00:19:27;7.00;93.50
62853;DHT22;49205;44.868;38.140;2022-11-15T00:22:14;6.90;93.90
62853;DHT22;49205;44.868;38.140;2022-11-15T00:25:01;6.80;94.00
62853;DHT22;49205;44.868;38.140;2022-11-15T00:27:49;6.90;94.30
62853;DHT22;49205;44.868;38.140;2022-11-15T00:30:37;6.90;94.30
62853;DHT22;49205;44.868;38.140;2022-11-15T00:33:24;6.90;94.30
62853;DHT22;49205;44.868;38.140;2022-11-15T00:36:12;7.00;94.30
62853;DHT22;49205;44.868;38.140;2022-11-15T00:38:59;7.00;94.30
62853;DHT22;49205;44.868;38.140;2022-11-15T00:41:46;7.00;94.10
62853;DHT22;49205;44.868;38.140;2022-11-15T00:44:33;6.90;94.10
62853;DHT22;49205;44.868;38.140;2022-11-15T00:47:20;6.90;94.00
62853;DHT22;49205;44.868;38.140;2022-11-15T00:50:07;6.80;94.20
62853;DHT22;49205;44.868;38.140;2022-11-15T00:52:54;6.80;94.20
62853;DHT22;49205;44.868;38.140;2022-11-15T00:55:41;6.80;94.30
62853;DHT22;49205;44.868;38.140;2022-11-15T00:58:28;6.90;94.30
62853;DHT22;49205;44.868;38.140;2022-11-15T01:01:15;6.90;94.30
62853;DHT22;49205;44.868;38.140;2022-11-15T01:04:03;6.90;94.30
62853;DHT22;49205;44.868;38.140;2022-11-15T01:06:50;6.90;94.30
62853;DHT22;49205;44.868;38.140;2022-11-15T01:09:37;6.90;94.30
62853;DHT22;49205;44.868;38.140;2022-11-15T01:12:24;6.90;94.30
62853;DHT22;49205;44.868;38.140;2022-11-15T01:15:11;6.90;94.20
62853;DHT22;49205;44.868;38.140;2022-11-15T01:17:58;6.90;94.40
62853;DHT22;49205;44.868;38.140;2022-11-15T01:20:44;6.90;94.10
62853;DHT22;49205;44.868;38.140;2022-11-15T01:23:31;6.80;94.00
62853;DHT22;49205;44.868;38.140;2022-11-15T01:26:19;6.70;94.10
62853;DHT22;49205;44.868;38.140;2022-11-15T01:29:06;6.60;94.10
62853;DHT22;49205;44.868;38.140;2022-11-15T01:31:53;6.50;94.20
62853;DHT22;49205;44.868;38.140;2022-11-15T01:34:40;6.50;94.20
62853;DHT22;49205;44.868;38.140;2022-11-15T01:37:27;6.50;94.50
62853;DHT22;49205;44.868;38.140;2022-11-15T01:40:14;6.50;94.40
62853;DHT22;49205;44.868;38.140;2022-11-15T01:43:21;6.50;94.20
62853;DHT22;49205;44.868;38.140;2022-11-15T01:49:19;6.50;94.40
62853;DHT22;49205;44.868;38.140;2022-11-15T01:52:09;6.50;94.40
62853;DHT22;49205;44.868;38.140;2022-11-15T01:57:56;6.50;94.40
62853;DHT22;49205;44.868;38.140;2022-11-15T02:00:43;6.50;94.40
62853;DHT22;49205;44.868;38.140;2022-11-15T02:06:31;6.40;94.20
62853;DHT22;49205;44.868;38.140;2022-11-15T02:09:19;6.40;94.20
62853;DHT22;49205;44.868;38.140;2022-11-15T02:12:07;6.40;94.30
62853;DHT22;49205;44.868;38.140;2022-11-15T02:14:56;6.40;94.30
62853;DHT22;49205;44.868;38.140;2022-11-15T02:17:54;6.30;94.20
62853;DHT22;49205;44.868;38.140;2022-11-15T02:21:02;6.20;94.20
62853;DHT22;49205;44.868;38.140;2022-11-15T02:23:53;6.20;94.30
62853;DHT22;49205;44.868;38.140;2022-11-15T02:32:54;6.30;94.40
62853;DHT22;49205;44.868;38.140;2022-11-15T02:35:44;6.30;94.50
62853;DHT22;49205;44.868;38.140;2022-11-15T02:44:42;6.20;94.30
62853;DHT22;49205;44.868;38.140;2022-11-15T02:47:30;6.20;94.30
62853;DHT22;49205;44.868;38.140;2022-11-15T02:50:20;6.20;94.40
62853;DHT22;49205;44.868;38.140;2022-11-15T02:53:08;6.20;94.30
62853;DHT22;49205;44.868;38.140;2022-11-15T02:55:56;6.20;94.30
62853;DHT22;49205;44.868;38.140;2022-11-15T03:07:59;6.00;94.40
62853;DHT22;49205;44.868;38.140;2022-11-15T03:11:07;6.10;94.40
62853;DHT22;49205;44.868;38.140;2022-11-15T03:17:11;6.00;94.30
62853;DHT22;49205;44.868;38.140;2022-11-15T03:22:27;5.80;94.10
62853;DHT22;49205;44.868;38.140;2022-11-15T03:25:17;5.80;94.30
62853;DHT22;49205;44.868;38.140;2022-11-15T03:28:06;5.80;94.30
62853;DHT22;49205;44.868;38.140;2022-11-15T03:30:55;5.70;94.40
62853;DHT22;49205;44.868;38.140;2022-11-15T03:33:43;5.70;94.30
62853;DHT22;49205;44.868;38.140;2022-11-15T03:36:31;5.70;94.30
62853;DHT22;49205;44.868;38.140;2022-11-15T03:39:20;5.60;94.50
62853;DHT22;49205;44.868;38.140;2022-11-15T03:45:06;5.70;94.60
62853;DHT22;49205;44.868;38.140;2022-11-15T03:48:02;5.70;94.40
62853;DHT22;49205;44.868;38.140;2022-11-15T03:50:41;5.70;94.50
62853;DHT22;49205;44.868;38.140;2022-11-15T03:53:29;5.70;94.50
62853;DHT22;49205;44.868;38.140;2022-11-15T03:56:17;5.70;94.50
62853;DHT22;49205;44.868;38.140;2022-11-15T03:59:05;5.70;94.50
62853;DHT22;49205;44.868;38.140;2022-11-15T04:01:52;5.70;94.40
62853;DHT22;49205;44.868;38.140;2022-11-15T04:04:39;5.70;94.30
62853;DHT22;49205;44.868;38.140;2022-11-15T04:07:26;5.70;94.40
62853;DHT22;49205;44.868;38.140;2022-11-15T04:10:13;5.60;94.50
62853;DHT22;49205;44.868;38.140;2022-11-15T04:13:02;5.60;94.60
62853;DHT22;49205;44.868;38.140;2022-11-15T04:15:49;5.70;94.60
62853;DHT22;49205;44.868;38.140;2022-11-15T04:18:36;5.70;94.50
62853;DHT22;49205;44.868;38.140;2022-11-15T04:21:24;5.70;94.40
62853;DHT22;49205;44.868;38.140;2022-11-15T04:24:29;5.60;94.40
62853;DHT22;49205;44.868;38.140;2022-11-15T04:27:16;5.60;94.50
62853;DHT22;49205;44.868;38.140;2022-11-15T04:30:04;5.50;94.50
62853;DHT22;49205;44.868;38.140;2022-11-15T04:32:51;5.50;94.50
62853;DHT22;49205;44.868;38.140;2022-11-15T04:35:38;5.50;94.50
62853;DHT22;49205;44.868;38.140;2022-11-15T04:38:25;5.50;94.60
62853;DHT22;49205;44.868;38.140;2022-11-15T04:41:12;5.60;94.70
62853;DHT22;49205;44.868;38.140;2022-11-15T04:43:59;5.60;94.50
62853;DHT22;49205;44.868;38.140;2022-11-15T04:46:46;5.60;94.60
62853;DHT22;49205;44.868;38.140;2022-11-15T04:49:33;5.60;94.50
62853;DHT22;49205;44.868;38.140;2022-11-15T04:52:20;5.60;94.70
62853;DHT22;49205;44.868;38.140;2022-11-15T04:55:08;5.60;94.50
62853;DHT22;49205;44.868;38.140;2022-11-15T04:58:00;5.60;94.60
62853;DHT22;49205;44.868;38.140;2022-11-15T05:00:47;5.60;94.60
62853;DHT22;49205;44.868;38.140;2022-11-15T05:03:34;5.60;94.60
62853;DHT22;49205;44.868;38.140;2022-11-15T05:06:39;5.70;94.70
62853;DHT22;49205;44.868;38.140;2022-11-15T05:09:26;5.70;94.70
62853;DHT22;49205;44.868;38.140;2022-11-15T05:12:13;5.80;94.70
62853;DHT22;49205;44.868;38.140;2022-11-15T05:15:00;5.80;94.60
62853;DHT22;49205;44.868;38.140;2022-11-15T05:17:47;5.90;94.60
62853;DHT22;49205;44.868;38.140;2022-11-15T05:20:35;5.90;94.60
62853;DHT22;49205;44.868;38.140;2022-11-15T05:23:22;6.00;94.60
62853;DHT22;49205;44.868;38.140;2022-11-15T05:26:10;6.00;94.60
62853;DHT22;49205;44.868;38.140;2022-11-15T05:28:58;6.10;94.70
62853;DHT22;49205;44.868;38.140;2022-11-15T05:31:46;6.10;94.70
62853;DHT22;49205;44.868;38.140;2022-11-15T05:34:33;6.20;94.60
62853;DHT22;49205;44.868;38.140;2022-11-15T05:37:20;6.20;94.70
62853;DHT22;49205;44.868;38.140;2022-11-15T05:40:07;6.30;94.60
62853;DHT22;49205;44.868;38.140;2022-11-15T05:42:55;6.30;94.50
62853;DHT22;49205;44.868;38.140;2022-11-15T05:45:42;6.30;94.60
62853;DHT22;49205;44.868;38.140;2022-11-15T05:48:29;6.30;94.40
62853;DHT22;49205;44.868;38.140;2022-11-15T05:51:17;6.30;94.40
62853;DHT22;49205;44.868;38.140;2022-11-15T05:54:05;6.20;94.40
62853;DHT22;49205;44.868;38.140;2022-11-15T05:56:52;6.30;94.60
62853;DHT22;49205;44.868;38.140;2022-11-15T05:59:42;6.30;94.70
62853;DHT22;49205;44.868;38.140;2022-11-15T06:02:29;6.40;94.70
62853;DHT22;49205;44.868;38.140;2022-11-15T06:05:16;6.40;94.30
62853;DHT22;49205;44.868;38.140;2022-11-15T06:08:03;6.30;92.60
62853;DHT22;49205;44.868;38.140;2022-11-15T06:10:50;6.00;92.20
62853;DHT22;49205;44.868;38.140;2022-11-15T06:13:37;5.60;92.80
62853;DHT22;49205;44.868;38.140;2022-11-15T06:16:24;5.40;93.40
62853;DHT22;49205;44.868;38.140;2022-11-15T06:19:11;5.30;93.50
62853;DHT22;49205;44.868;38.140;2022-11-15T06:21:59;5.20;93.90
62853;DHT22;49205;44.868;38.140;2022-11-15T06:24:46;5.20;94.50
62853;DHT22;49205;44.868;38.140;2022-11-15T06:27:33;5.40;94.50
62853;DHT22;49205;44.868;38.140;2022-11-15T06:30:21;5.40;94.00
62853;DHT22;49205;44.868;38.140;2022-11-15T06:33:08;5.50;93.90
62853;DHT22;49205;44.868;38.140;2022-11-15T06:35:55;5.50;93.10
62853;DHT22;49205;44.868;38.140;2022-11-15T06:38:43;5.50;92.70
62853;DHT22;49205;44.868;38.140;2022-11-15T06:41:30;5.50;93.60
62853;DHT22;49205;44.868;38.140;2022-11-15T06:44:17;5.60;93.30
62853;DHT22;49205;44.868;38.140;2022-11-15T06:47:04;5.60;93.70
62853;DHT22;49205;44.868;38.140;2022-11-15T06:49:51;5.70;94.00
62853;DHT22;49205;44.868;38.140;2022-11-15T06:52:38;5.90;94.10
62853;DHT22;49205;44.868;38.140;2022-11-15T06:55:26;6.10;94.30
62853;DHT22;49205;44.868;38.140;2022-11-15T06:58:13;6.20;94.10
62853;DHT22;49205;44.868;38.140;2022-11-15T07:01:08;6.30;94.10
62853;DHT22;49205;44.868;38.140;2022-11-15T07:03:56;6.50;93.80
62853;DHT22;49205;44.868;38.140;2022-11-15T07:06:45;6.60;93.90
62853;DHT22;49205;44.868;38.140;2022-11-15T07:09:31;6.60;93.40
62853;DHT22;49205;44.868;38.140;2022-11-15T07:12:19;6.60;93.60
62853;DHT22;49205;44.868;38.140;2022-11-15T07:15:07;6.70;93.60
62853;DHT22;49205;44.868;38.140;2022-11-15T07:17:54;6.70;94.00
62853;DHT22;49205;44.868;38.140;2022-11-15T07:20:41;6.80;94.00
62853;DHT22;49205;44.868;38.140;2022-11-15T07:23:28;7.00;93.50
62853;DHT22;49205;44.868;38.140;2022-11-15T07:26:15;7.10;93.90
62853;DHT22;49205;44.868;38.140;2022-11-15T07:29:02;7.20;93.90
62853;DHT22;49205;44.868;38.140;2022-11-15T07:31:49;7.30;93.60
62853;DHT22;49205;44.868;38.140;2022-11-15T07:34:36;7.30;93.20
62853;DHT22;49205;44.868;38.140;2022-11-15T07:37:24;7.30;92.20
62853;DHT22;49205;44.868;38.140;2022-11-15T07:40:11;7.30;93.30
62853;DHT22;49205;44.868;38.140;2022-11-15T07:43:07;7.30;93.40
62853;DHT22;49205;44.868;38.140;2022-11-15T07:45:55;7.30;93.20
62853;DHT22;49205;44.868;38.140;2022-11-15T07:48:42;7.40;92.80
62853;DHT22;49205;44.868;38.140;2022-11-15T10:51:04;7.90;91.70
62853;DHT22;49205;44.868;38.140;2022-11-15T10:53:38;7.90;92.10
62853;DHT22;49205;44.868;38.140;2022-11-15T10:56:07;8.00;92.00
62853;DHT22;49205;44.868;38.140;2022-11-15T10:58:42;8.00;92.00
62853;DHT22;49205;44.868;38.140;2022-11-15T11:01:16;8.10;92.00
62853;DHT22;49205;44.868;38.140;2022-11-15T11:04:00;8.20;92.10
62853;DHT22;49205;44.868;38.140;2022-11-15T11:06:29;8.20;91.50
62853;DHT22;49205;44.868;38.140;2022-11-15T11:09:04;8.30;91.60
62853;DHT22;49205;44.868;38.140;2022-11-15T11:11:50;8.40;91.20
62853;DHT22;49205;44.868;38.140;2022-11-15T11:14:24;8.50;90.80
62853;DHT22;49205;44.868;38.140;2022-11-15T11:22:26;8.70;88.10
62853;DHT22;49205;44.868;38.140;2022-11-15T11:25:03;8.80;90.50
62853;DHT22;49205;44.868;38.140;2022-11-15T11:27:42;9.00;90.10
62853;DHT22;49205;44.868;38.140;2022-11-15T11:30:15;9.10;88.30
62853;DHT22;49205;44.868;38.140;2022-11-15T11:33:05;9.10;88.90
62853;DHT22;49205;44.868;38.140;2022-11-15T11:35:50;9.20;87.10
62853;DHT22;49205;44.868;38.140;2022-11-15T11:38:33;9.20;84.60
62853;DHT22;49205;44.868;38.140;2022-11-15T11:43:56;9.20;84.90
62853;DHT22;49205;44.868;38.140;2022-11-15T11:46:37;9.20;83.30
62853;DHT22;49205;44.868;38.140;2022-11-15T11:51:55;9.20;85.10
62853;DHT22;49205;44.868;38.140;2022-11-15T11:54:32;9.20;84.50
62853;DHT22;49205;44.868;38.140;2022-11-15T11:56:57;9.20;82.20
62853;DHT22;49205;44.868;38.140;2022-11-15T12:02:19;9.20;84.10
62853;DHT22;49205;44.868;38.140;2022-11-15T12:04:50;9.20;83.20
62853;DHT22;49205;44.868;38.140;2022-11-15T12:07:29;9.30;85.40
62853;DHT22;49205;44.868;38.140;2022-11-15T12:10:03;9.30;83.60
62853;DHT22;49205;44.868;38.140;2022-11-15T12:15:29;9.30;82.70
62853;DHT22;49205;44.868;38.140;2022-11-15T12:17:58;9.30;83.30
62853;DHT22;49205;44.868;38.140;2022-11-15T12:20:34;9.30;82.40
62853;DHT22;49205;44.868;38.140;2022-11-15T12:23:10;9.30;81.60
62853;DHT22;49205;44.868;38.140;2022-11-15T12:30:55;9.20;81.20
62853;DHT22;49205;44.868;38.140;2022-11-15T12:33:45;9.20;81.30
62853;DHT22;49205;44.868;38.140;2022-11-15T12:39:03;9.20;81.80
62853;DHT22;49205;44.868;38.140;2022-11-15T12:41:34;9.20;81.00
62853;DHT22;49205;44.868;38.140;2022-11-15T12:44:04;9.20;82.60
62853;DHT22;49205;44.868;38.140;2022-11-15T13:02:44;9.10;81.30
62853;DHT22;49205;44.868;38.140;2022-11-15T13:10:31;9.00;80.90
62853;DHT22;49205;44.868;38.140;2022-11-15T13:13:08;8.90;81.60
62853;DHT22;49205;44.868;38.140;2022-11-15T13:15:51;8.90;81.40
62853;DHT22;49205;44.868;38.140;2022-11-15T13:18:33;8.90;82.70
62853;DHT22;49205;44.868;38.140;2022-11-15T13:21:04;8.80;82.70
62853;DHT22;49205;44.868;38.140;2022-11-15T13:23:35;8.80;82.30
62853;DHT22;49205;44.868;38.140;2022-11-15T13:26:10;8.80;82.60
62853;DHT22;49205;44.868;38.140;2022-11-15T13:28:44;8.70;81.80
62853;DHT22;49205;44.868;38.140;2022-11-15T13:31:23;8.70;83.00
62853;DHT22;49205;44.868;38.140;2022-11-15T13:33:48;8.70;82.60
62853;DHT22;49205;44.868;38.140;2022-11-15T13:36:22;8.60;82.10
62853;DHT22;49205;44.868;38.140;2022-11-15T13:39:00;8.60;81.90
62853;DHT22;49205;44.868;38.140;2022-11-15T13:41:32;8.50;83.00
62853;DHT22;49205;44.868;38.140;2022-11-15T13:44:02;8.50;83.00
62853;DHT22;49205;44.868;38.140;2022-11-15T13:46:33;8.40;82.70
62853;DHT22;49205;44.868;38.140;2022-11-15T13:49:04;8.40;83.70
62853;DHT22;49205;44.868;38.140;2022-11-15T13:51:36;8.40;83.90
62853;DHT22;49205;44.868;38.140;2022-11-15T13:54:34;8.40;84.10
62853;DHT22;49205;44.868;38.140;2022-11-15T13:57:11;8.30;83.40
62853;DHT22;49205;44.868;38.140;2022-11-15T13:59:48;8.30;84.80
62853;DHT22;49205;44.868;38.140;2022-11-15T14:02:19;8.30;86.00
62853;DHT22;49205;44.868;38.140;2022-11-15T14:04:57;8.20;85.60
62853;DHT22;49205;44.868;38.140;2022-11-15T14:07:25;8.20;86.10
62853;DHT22;49205;44.868;38.140;2022-11-15T14:09:54;8.40;89.40
62853;DHT22;49205;44.868;38.140;2022-11-15T14:12:28;8.60;90.20
62853;DHT22;49205;44.868;38.140;2022-11-15T14:14:59;8.90;88.40
62853;DHT22;49205;44.868;38.140;2022-11-15T14:17:33;9.00;89.20
62853;DHT22;49205;44.868;38.140;2022-11-15T14:20:18;8.90;88.30
62853;DHT22;49205;44.868;38.140;2022-11-15T14:22:34;8.80;87.10
62853;DHT22;49205;44.868;38.140;2022-11-15T14:30:55;8.50;88.50
62853;DHT22;49205;44.868;38.140;2022-11-15T14:33:33;8.60;91.40
62853;DHT22;49205;44.868;38.140;2022-11-15T14:36:14;8.80;91.70
62853;DHT22;49205;44.868;38.140;2022-11-15T14:38:43;9.00;90.90
62853;DHT22;49205;44.868;38.140;2022-11-15T14:41:23;9.00;90.20
62853;DHT22;49205;44.868;38.140;2022-11-15T14:43:54;8.90;90.10
62853;DHT22;49205;44.868;38.140;2022-11-15T14:46:23;8.80;90.00
62853;DHT22;49205;44.868;38.140;2022-11-15T14:48:52;8.70;90.10
62853;DHT22;49205;44.868;38.140;2022-11-15T14:51:21;8.60;89.60
62853;DHT22;49205;44.868;38.140;2022-11-15T14:53:51;8.50;90.00
62853;DHT22;49205;44.868;38.140;2022-11-15T14:56:20;8.40;90.20
62853;DHT22;49205;44.868;38.140;2022-11-15T14:58:49;8.40;90.30
62853;DHT22;49205;44.868;38.140;2022-11-15T15:01:24;8.30;90.20
62853;DHT22;49205;44.868;38.140;2022-11-15T15:03:54;8.30;90.30
62853;DHT22;49205;44.868;38.140;2022-11-15T15:06:26;8.30;90.50
62853;DHT22;49205;44.868;38.140;2022-11-15T15:08:55;8.30;90.50
62853;DHT22;49205;44.868;38.140;2022-11-15T15:11:27;8.20;90.40
62853;DHT22;49205;44.868;38.140;2022-11-15T15:13:56;8.20;90.30
62853;DHT22;49205;44.868;38.140;2022-11-15T15:16:27;8.10;90.50
62853;DHT22;49205;44.868;38.140;2022-11-15T15:18:56;8.10;90.50
62853;DHT22;49205;44.868;38.140;2022-11-15T15:21:27;8.10;90.30
62853;DHT22;49205;44.868;38.140;2022-11-15T15:23:56;8.00;90.40
62853;DHT22;49205;44.868;38.140;2022-11-15T15:26:25;8.00;90.60
62853;DHT22;49205;44.868;38.140;2022-11-15T15:28:54;7.90;90.50
62853;DHT22;49205;44.868;38.140;2022-11-15T15:31:23;8.00;90.70
62853;DHT22;49205;44.868;38.140;2022-11-15T15:33:52;8.00;90.90
62853;DHT22;49205;44.868;38.140;2022-11-15T15:36:21;7.90;90.90
62853;DHT22;49205;44.868;38.140;2022-11-15T15:38:51;8.00;91.10
62853;DHT22;49205;44.868;38.140;2022-11-15T15:41:20;8.00;91.10
62853;DHT22;49205;44.868;38.140;2022-11-15T15:43:50;8.00;91.10
62853;DHT22;49205;44.868;38.140;2022-11-15T15:46:20;7.90;91.10
62853;DHT22;49205;44.868;38.140;2022-11-15T15:48:49;7.90;91.20
62853;DHT22;49205;44.868;38.140;2022-11-15T15:51:18;7.90;91.30
62853;DHT22;49205;44.868;38.140;2022-11-15T15:53:47;7.80;91.30
62853;DHT22;49205;44.868;38.140;2022-11-15T15:56:18;7.80;91.30
62853;DHT22;49205;44.868;38.140;2022-11-15T15:58:47;7.80;91.40
62853;DHT22;49205;44.868;38.140;2022-11-15T16:01:16;7.80;91.40
62853;DHT22;49205;44.868;38.140;2022-11-15T16:03:46;7.80;91.60
62853;DHT22;49205;44.868;38.140;2022-11-15T16:06:38;7.80;91.60
62853;DHT22;49205;44.868;38.140;2022-11-15T16:09:06;7.80;91.50
62853;DHT22;49205;44.868;38.140;2022-11-15T16:11:35;7.70;91.50
62853;DHT22;49205;44.868;38.140;2022-11-15T16:14:04;7.70;91.60
62853;DHT22;49205;44.868;38.140;2022-11-15T16:16:34;7.70;91.70
62853;DHT22;49205;44.868;38.140;2022-11-15T16:19:04;7.70;91.80
62853;DHT22;49205;44.868;38.140;2022-11-15T16:21:33;7.70;91.80
62853;DHT22;49205;44.868;38.140;2022-11-15T16:24:02;7.70;91.80
62853;DHT22;49205;44.868;38.140;2022-11-15T16:26:33;7.60;91.80
62853;DHT22;49205;44.868;38.140;2022-11-15T16:29:03;7.60;91.90
62853;DHT22;49205;44.868;38.140;2022-11-15T16:31:34;7.60;92.10
62853;DHT22;49205;44.868;38.140;2022-11-15T16:34:03;7.70;92.00
62853;DHT22;49205;44.868;38.140;2022-11-15T16:36:33;7.60;91.90
62853;DHT22;49205;44.868;38.140;2022-11-15T16:39:03;7.60;92.00
62853;DHT22;49205;44.868;38.140;2022-11-15T16:41:32;7.60;92.30
62853;DHT22;49205;44.868;38.140;2022-11-15T16:44:01;7.70;92.80
62853;DHT22;49205;44.868;38.140;2022-11-15T16:46:30;7.80;92.40
62853;DHT22;49205;44.868;38.140;2022-11-15T16:48:59;7.80;92.20
62853;DHT22;49205;44.868;38.140;2022-11-15T16:51:29;7.70;92.20
62853;DHT22;49205;44.868;38.140;2022-11-15T16:53:58;7.70;92.20
62853;DHT22;49205;44.868;38.140;2022-11-15T16:56:29;7.60;92.20
62853;DHT22;49205;44.868;38.140;2022-11-15T16:58:59;7.50;92.20
62853;DHT22;49205;44.868;38.140;2022-11-15T17:01:30;7.40;92.20
62853;DHT22;49205;44.868;38.140;2022-11-15T17:04:00;7.30;92.20
62853;DHT22;49205;44.868;38.140;2022-11-15T17:06:31;7.20;92.30
62853;DHT22;49205;44.868;38.140;2022-11-15T17:09:01;7.20;92.40
62853;DHT22;49205;44.868;38.140;2022-11-15T17:11:29;7.20;92.50
62853;DHT22;49205;44.868;38.140;2022-11-15T17:13:59;7.20;92.50
62853;DHT22;49205;44.868;38.140;2022-11-15T17:16:28;7.10;92.50
62853;DHT22;49205;44.868;38.140;2022-11-15T17:18:57;7.10;92.50
62853;DHT22;49205;44.868;38.140;2022-11-15T17:21:26;7.00;92.50
62853;DHT22;49205;44.868;38.140;2022-11-15T17:23:57;7.00;92.50
62853;DHT22;49205;44.868;38.140;2022-11-15T17:26:26;7.00;92.60
62853;DHT22;49205;44.868;38.140;2022-11-15T17:28:56;6.90;92.60
62853;DHT22;49205;44.868;38.140;2022-11-15T17:31:25;6.90;92.70
62853;DHT22;49205;44.868;38.140;2022-11-15T17:33:56;6.80;92.70
62853;DHT22;49205;44.868;38.140;2022-11-15T17:36:26;6.80;92.80
62853;DHT22;49205;44.868;38.140;2022-11-15T17:38:55;6.80;92.80
62853;DHT22;49205;44.868;38.140;2022-11-15T17:41:24;6.80;92.80
62853;DHT22;49205;44.868;38.140;2022-11-15T17:43:54;6.80;92.80
62853;DHT22;49205;44.868;38.140;2022-11-15T17:46:25;6.70;92.80
62853;DHT22;49205;44.868;38.140;2022-11-15T17:48:55;6.70;92.80
62853;DHT22;49205;44.868;38.140;2022-11-15T17:51:25;6.70;92.90
62853;DHT22;49205;44.868;38.140;2022-11-15T17:53:55;6.60;92.80
62853;DHT22;49205;44.868;38.140;2022-11-15T17:56:25;6.60;92.90
62853;DHT22;49205;44.868;38.140;2022-11-15T17:58:56;6.50;93.00
62853;DHT22;49205;44.868;38.140;2022-11-15T18:01:31;6.50;93.00
62853;DHT22;49205;44.868;38.140;2022-11-15T18:04:02;6.50;93.10
62853;DHT22;49205;44.868;38.140;2022-11-15T18:06:32;6.50;93.10
62853;DHT22;49205;44.868;38.140;2022-11-15T18:09:02;6.40;93.20
62853;DHT22;49205;44.868;38.140;2022-11-15T18:11:37;6.40;93.20
62853;DHT22;49205;44.868;38.140;2022-11-15T18:14:11;6.40;93.20
62853;DHT22;49205;44.868;38.140;2022-11-15T18:16:38;6.40;93.10
62853;DHT22;49205;44.868;38.140;2022-11-15T18:19:08;6.30;93.10
62853;DHT22;49205;44.868;38.140;2022-11-15T18:21:40;6.30;93.10
62853;DHT22;49205;44.868;38.140;2022-11-15T18:24:27;6.30;93.20
62853;DHT22;49205;44.868;38.140;2022-11-15T18:26:57;6.30;93.30
62853;DHT22;49205;44.868;38.140;2022-11-15T18:29:26;6.20;93.30
62853;DHT22;49205;44.868;38.140;2022-11-15T18:31:55;6.20;93.30
62853;DHT22;49205;44.868;38.140;2022-11-15T18:34:28;6.20;93.30
62853;DHT22;49205;44.868;38.140;2022-11-15T18:37:00;6.20;93.30
62853;DHT22;49205;44.868;38.140;2022-11-15T18:39:30;6.10;93.30
62853;DHT22;49205;44.868;38.140;2022-11-15T18:41:59;6.10;93.30
62853;DHT22;49205;44.868;38.140;2022-11-15T18:44:29;6.10;93.40
62853;DHT22;49205;44.868;38.140;2022-11-15T18:46:58;6.00;93.40
62853;DHT22;49205;44.868;38.140;2022-11-15T18:49:27;6.00;93.10
62853;DHT22;49205;44.868;38.140;2022-11-15T18:52:03;6.00;93.40
62853;DHT22;49205;44.868;38.140;2022-11-15T18:54:34;5.90;93.50
62853;DHT22;49205;44.868;38.140;2022-11-15T18:57:02;6.00;93.70
62853;DHT22;49205;44.868;38.140;2022-11-15T18:59:31;6.00;93.70
62853;DHT22;49205;44.868;38.140;2022-11-15T19:02:00;6.00;93.70
62853;DHT22;49205;44.868;38.140;2022-11-15T19:04:30;6.00;93.70
62853;DHT22;49205;44.868;38.140;2022-11-15T19:06:59;6.00;93.70
62853;DHT22;49205;44.868;38.140;2022-11-15T19:09:28;6.00;93.80
62853;DHT22;49205;44.868;38.140;2022-11-15T19:11:59;5.90;93.70
62853;DHT22;49205;44.868;38.140;2022-11-15T19:14:28;5.90;93.70
62853;DHT22;49205;44.868;38.140;2022-11-15T19:16:57;5.90;93.70
62853;DHT22;49205;44.868;38.140;2022-11-15T19:19:27;5.90;93.70
62853;DHT22;49205;44.868;38.140;2022-11-15T19:21:56;5.90;93.70
62853;DHT22;49205;44.868;38.140;2022-11-15T19:24:25;5.90;93.70
62853;DHT22;49205;44.868;38.140;2022-11-15T19:26:54;5.90;93.70
62853;DHT22;49205;44.868;38.140;2022-11-15T19:29:23;5.80;93.80
62853;DHT22;49205;44.868;38.140;2022-11-15T19:31:51;5.80;93.80
62853;DHT22;49205;44.868;38.140;2022-11-15T19:34:20;5.80;93.80
62853;DHT22;49205;44.868;38.140;2022-11-15T19:36:50;5.80;93.90
62853;DHT22;49205;44.868;38.140;2022-11-15T19:39:19;5.80;93.80
62853;DHT22;49205;44.868;38.140;2022-11-15T19:41:48;5.70;93.80
62853;DHT22;49205;44.868;38.140;2022-11-15T19:44:19;5.70;93.90
62853;DHT22;49205;44.868;38.140;2022-11-15T19:46:49;5.70;93.90
62853;DHT22;49205;44.868;38.140;2022-11-15T19:49:18;5.70;94.00
62853;DHT22;49205;44.868;38.140;2022-11-15T19:51:48;5.70;94.00
62853;DHT22;49205;44.868;38.140;2022-11-15T19:54:17;5.70;94.10
62853;DHT22;49205;44.868;38.140;2022-11-15T19:56:47;5.60;94.00
62853;DHT22;49205;44.868;38.140;2022-11-15T19:59:16;5.60;93.90
62853;DHT22;49205;44.868;38.140;2022-11-15T20:01:45;5.60;93.90
62853;DHT22;49205;44.868;38.140;2022-11-15T20:04:15;5.70;94.00
62853;DHT22;49205;44.868;38.140;2022-11-15T20:06:44;5.60;93.90
62853;DHT22;49205;44.868;38.140;2022-11-15T20:09:14;5.60;94.00
62853;DHT22;49205;44.868;38.140;2022-11-15T20:11:43;5.60;94.10
62853;DHT22;49205;44.868;38.140;2022-11-15T20:14:12;5.60;94.30
62853;DHT22;49205;44.868;38.140;2022-11-15T20:16:41;5.60;94.10
62853;DHT22;49205;44.868;38.140;2022-11-15T20:19:11;5.60;94.10
62853;DHT22;49205;44.868;38.140;2022-11-15T20:21:42;5.50;94.10
62853;DHT22;49205;44.868;38.140;2022-11-15T20:24:11;5.50;94.10
62853;DHT22;49205;44.868;38.140;2022-11-15T20:26:40;5.40;94.00
62853;DHT22;49205;44.868;38.140;2022-11-15T20:29:10;5.40;94.00
62853;DHT22;49205;44.868;38.140;2022-11-15T20:31:40;5.40;94.20
62853;DHT22;49205;44.868;38.140;2022-11-15T20:34:09;5.40;94.20
62853;DHT22;49205;44.868;38.140;2022-11-15T20:36:38;5.40;94.20
62853;DHT22;49205;44.868;38.140;2022-11-15T20:39:08;5.40;94.30
62853;DHT22;49205;44.868;38.140;2022-11-15T20:41:37;5.40;94.30
62853;DHT22;49205;44.868;38.140;2022-11-15T20:44:06;5.40;94.20
62853;DHT22;49205;44.868;38.140;2022-11-15T20:46:35;5.40;94.30
62853;DHT22;49205;44.868;38.140;2022-11-15T20:49:04;5.30;94.30
62853;DHT22;49205;44.868;38.140;2022-11-15T20:51:33;5.40;94.30
62853;DHT22;49205;44.868;38.140;2022-11-15T20:54:03;5.40;94.30
62853;DHT22;49205;44.868;38.140;2022-11-15T20:56:33;5.30;94.20
62853;DHT22;49205;44.868;38.140;2022-11-15T20:59:02;5.30;94.30
62853;DHT22;49205;44.868;38.140;2022-11-15T21:01:31;5.30;94.30
62853;DHT22;49205;44.868;38.140;2022-11-15T21:04:00;5.20;94.30
62853;DHT22;49205;44.868;38.140;2022-11-15T21:06:29;5.30;94.30
62853;DHT22;49205;44.868;38.140;2022-11-15T21:08:58;5.20;94.20
62853;DHT22;49205;44.868;38.140;2022-11-15T21:11:45;5.20;94.10